createdAt,value
2022-11-25T00:01:38.207Z,96234.28
2022-11-25T00:04:04.918Z,96233.22
2022-11-25T00:06:32.705Z,96232.50
2022-11-25T00:09:00.376Z,96234.72
2022-11-25T00:11:27.549Z,96235.03
2022-11-25T00:13:55.169Z,96243.75
2022-11-25T00:16:22.905Z,96238.69
2022-11-25T00:18:50.701Z,96247.63
2022-11-25T00:21:18.698Z,96251.72
2022-11-25T00:23:45.386Z,96248.59
2022-11-25T00:26:15.625Z,96239.97
2022-11-25T00:28:43.102Z,96241.88
2022-11-25T00:31:14.208Z,96236.81
2022-11-25T00:33:41.330Z,96242.06
2022-11-25T00:36:14.438Z,96243.88
2022-11-25T00:38:40.951Z,96240.16
2022-11-25T00:41:25.964Z,96239.34
2022-11-25T00:44:11.251Z,96242.06
2022-11-25T00:46:37.746Z,96233.88
2022-11-25T00:49:04.302Z,96238.41
2022-11-25T00:51:30.821Z,96241.13
2022-11-25T00:53:59.048Z,96237.66
2022-11-25T00:56:25.822Z,96239.56
2022-11-25T00:58:53.047Z,96241.25
2022-11-25T01:01:19.717Z,96242.47
2022-11-25T01:03:48.667Z,96243.53
2022-11-25T01:06:15.170Z,96246.25
2022-11-25T01:08:41.650Z,96239.56
2022-11-25T01:11:10.305Z,96241.88
2022-11-25T01:13:37.108Z,96243.13
2022-11-25T01:16:07.525Z,96250.25
2022-11-25T01:18:34.102Z,96264.50
2022-11-25T01:21:33.176Z,96255.81
2022-11-25T01:24:01.559Z,96267.06
2022-11-25T01:26:29.244Z,96256.13
2022-11-25T01:28:57.252Z,96256.97
2022-11-25T01:31:25.053Z,96259.19
2022-11-25T01:34:03.416Z,96268.94
2022-11-25T01:36:30.058Z,96271.13
2022-11-25T01:38:57.583Z,96277.31
2022-11-25T01:41:25.298Z,96272.81
2022-11-25T01:44:06.950Z,96268.84
2022-11-25T01:46:45.189Z,96273.31
2022-11-25T01:49:37.930Z,96278.78
2022-11-25T01:52:04.387Z,96277.84
2022-11-25T01:54:33.708Z,96288.22
2022-11-25T01:57:03.930Z,96289.16
2022-11-25T01:59:31.022Z,96288.31
2022-11-25T02:01:58.756Z,96289.78
2022-11-25T02:04:28.458Z,96298.59
2022-11-25T02:06:57.589Z,96300.56
2022-11-25T02:09:25.114Z,96292.38
2022-11-25T02:11:51.872Z,96292.59
2022-11-25T02:14:20.580Z,96297.94
2022-11-25T02:16:47.200Z,96307.59
2022-11-25T02:19:22.539Z,96300.78
2022-11-25T02:21:52.398Z,96304.66
2022-11-25T02:24:23.559Z,96305.91
2022-11-25T02:26:50.074Z,96311.31
2022-11-25T02:29:16.643Z,96308.59
2022-11-25T02:31:43.963Z,96300.75
2022-11-25T02:34:10.687Z,96308.59
2022-11-25T02:36:37.502Z,96314.69
2022-11-25T02:39:04.573Z,96319.19
2022-11-25T02:41:32.792Z,96318.25
2022-11-25T02:43:59.683Z,96313.31
2022-11-25T02:46:27.767Z,96316.75
2022-11-25T02:49:11.399Z,96323.88
2022-11-25T02:51:39.329Z,96317.69
2022-11-25T02:54:05.908Z,96324.63
2022-11-25T02:56:33.366Z,96327.25
2022-11-25T02:58:59.935Z,96331.66
2022-11-25T03:01:26.597Z,96333.63
2022-11-25T03:03:53.326Z,96334.66
2022-11-25T03:06:19.809Z,96332.78
2022-11-25T03:08:46.263Z,96334.44
2022-11-25T03:11:12.785Z,96329.41
2022-11-25T03:13:39.257Z,96338.22
2022-11-25T03:16:05.945Z,96332.78
2022-11-25T03:18:32.597Z,96340.34
2022-11-25T03:20:59.147Z,96343.16
2022-11-25T03:23:25.835Z,96348.59
2022-11-25T03:25:52.423Z,96343.34
2022-11-25T03:28:18.940Z,96342.63
2022-11-25T03:30:45.485Z,96350.31
2022-11-25T03:33:11.994Z,96355.63
2022-11-25T03:35:38.471Z,96350.59
2022-11-25T03:38:05.119Z,96356.09
2022-11-25T03:40:31.612Z,96353.19
2022-11-25T03:42:58.108Z,96347.09
2022-11-25T03:45:24.796Z,96345.34
2022-11-25T03:47:51.336Z,96350.38
2022-11-25T03:50:17.880Z,96347.56
2022-11-25T03:52:44.381Z,96359.91
2022-11-25T03:55:13.030Z,96361.88
2022-11-25T03:57:39.922Z,96366.19
2022-11-25T04:00:06.859Z,96358.13
2022-11-25T04:02:33.401Z,96368.91
2022-11-25T04:04:59.998Z,96371.81
2022-11-25T04:07:26.520Z,96359.84
2022-11-25T04:09:53.292Z,96359.38
2022-11-25T04:12:38.108Z,96352.56
2022-11-25T04:15:04.850Z,96359.78
2022-11-25T04:17:31.442Z,96353.50
2022-11-25T04:19:57.923Z,96360.53
2022-11-25T04:22:24.422Z,96351.63
2022-11-25T04:24:50.981Z,96352.47
2022-11-25T04:27:19.266Z,96348.47
2022-11-25T04:29:46.901Z,96350.63
2022-11-25T04:32:13.508Z,96351.38
2022-11-25T04:34:40.552Z,96358.22
2022-11-25T04:37:07.047Z,96348.56
2022-11-25T04:39:33.580Z,96348.47
2022-11-25T04:42:18.419Z,96338.13
2022-11-25T04:45:01.027Z,96346.72
2022-11-25T04:47:32.162Z,96330.81
2022-11-25T04:49:59.025Z,96333.34
2022-11-25T04:52:25.675Z,96336.72
2022-11-25T04:54:52.160Z,96335.50
2022-11-25T04:57:18.780Z,96337.50
2022-11-25T04:59:45.643Z,96332.53
2022-11-25T05:02:17.654Z,96340.38
2022-11-25T05:04:44.948Z,96330.28
2022-11-25T05:07:11.832Z,96329.34
2022-11-25T05:09:38.578Z,96322.25
2022-11-25T05:12:06.307Z,96333.75
2022-11-25T05:14:32.977Z,96328.22
2022-11-25T05:16:59.634Z,96330.94
2022-11-25T05:19:26.187Z,96327.09
2022-11-25T05:21:52.680Z,96331.38
2022-11-25T05:24:19.515Z,96332.50
2022-11-25T05:26:46.006Z,96337.00
2022-11-25T05:29:12.586Z,96339.53
2022-11-25T05:31:39.269Z,96336.25
2022-11-25T05:34:05.765Z,96348.59
2022-11-25T05:36:32.373Z,96358.41
2022-11-25T05:38:59.341Z,96355.91
2022-11-25T05:41:26.317Z,96360.72
2022-11-25T05:43:53.031Z,96364.09
2022-11-25T05:46:20.454Z,96365.13
2022-11-25T05:48:47.028Z,96372.13
2022-11-25T05:51:13.539Z,96371.09
2022-11-25T05:53:40.052Z,96379.81
2022-11-25T05:56:07.192Z,96376.34
2022-11-25T05:58:33.742Z,96389.41
2022-11-25T06:01:00.242Z,96395.50
2022-11-25T06:03:27.566Z,96392.03
2022-11-25T06:05:57.752Z,96387.47
2022-11-25T06:08:24.384Z,96391.19
2022-11-25T06:10:50.910Z,96391.38
2022-11-25T06:13:17.704Z,96387.06
2022-11-25T06:15:45.213Z,96392.38
2022-11-25T06:18:12.286Z,96386.53
2022-11-25T06:20:39.053Z,96392.94
2022-11-25T06:23:06.082Z,96394.00
2022-11-25T06:25:32.750Z,96394.00
2022-11-25T06:28:14.740Z,96397.47
2022-11-25T06:30:41.249Z,96400.91
2022-11-25T06:33:07.720Z,96399.25
2022-11-25T06:35:34.278Z,96407.91
2022-11-25T06:38:00.836Z,96402.59
2022-11-25T06:40:27.350Z,96408.38
2022-11-25T06:42:53.874Z,96407.75
2022-11-25T06:45:20.419Z,96406.06
2022-11-25T06:47:46.945Z,96411.00
2022-11-25T06:50:13.479Z,96416.78
2022-11-25T06:52:39.993Z,96413.44
2022-11-25T06:55:06.595Z,96419.50
2022-11-25T06:57:33.083Z,96417.81
2022-11-25T06:59:59.666Z,96410.41
2022-11-25T07:02:26.245Z,96415.38
2022-11-25T07:04:53.899Z,96420.56
2022-11-25T07:07:20.484Z,96420.59
2022-11-25T07:09:47.691Z,96413.84
2022-11-25T07:12:14.295Z,96419.22
2022-11-25T07:14:40.817Z,96420.53
2022-11-25T07:17:11.825Z,96425.75
2022-11-25T07:19:38.644Z,96425.66
2022-11-25T07:22:05.152Z,96437.84
2022-11-25T07:24:31.622Z,96436.56
2022-11-25T07:26:58.353Z,96432.13
2022-11-25T07:32:11.648Z,96436.09
2022-11-25T07:34:38.386Z,96440.09
2022-11-25T07:37:04.845Z,96439.88
2022-11-25T07:39:31.541Z,96436.91
2022-11-25T07:41:58.026Z,96436.69
2022-11-25T07:44:24.508Z,96435.13
2022-11-25T07:46:51.899Z,96443.66
2022-11-25T07:49:20.722Z,96444.97
2022-11-25T07:51:59.253Z,96442.19
2022-11-25T07:54:25.825Z,96446.97
2022-11-25T07:56:52.428Z,96446.16
2022-11-25T07:59:20.160Z,96439.47
2022-11-25T08:01:48.746Z,96440.19
2022-11-25T08:04:20.172Z,96448.56
2022-11-25T08:06:48.441Z,96450.47
2022-11-25T08:09:18.556Z,96451.78
2022-11-25T08:11:45.504Z,96456.19
2022-11-25T08:14:12.001Z,96453.94
2022-11-25T08:16:38.674Z,96464.34
2022-11-25T08:19:06.794Z,96452.94
2022-11-25T08:21:33.527Z,96450.66
2022-11-25T08:24:00.018Z,96458.88
2022-11-25T08:26:27.798Z,96460.19
2022-11-25T08:28:54.670Z,96457.81
2022-11-25T08:31:22.846Z,96462.09
2022-11-25T08:33:49.982Z,96463.78
2022-11-25T08:36:16.650Z,96465.84
2022-11-25T08:38:43.781Z,96457.97
2022-11-25T08:41:14.437Z,96451.50
2022-11-25T08:43:41.594Z,96450.94
2022-11-25T08:46:12.794Z,96449.03
2022-11-25T08:48:39.873Z,96451.06
2022-11-25T08:51:14.202Z,96450.72
2022-11-25T08:53:40.788Z,96448.56
2022-11-25T08:56:07.662Z,96450.97
2022-11-25T08:58:35.030Z,96453.72
2022-11-25T09:01:01.818Z,96452.03
2022-11-25T09:03:31.940Z,96454.31
2022-11-25T09:05:58.487Z,96448.69
2022-11-25T09:08:25.853Z,96453.97
2022-11-25T09:10:52.409Z,96451.09
2022-11-25T09:13:19.051Z,96449.88
2022-11-25T09:15:45.618Z,96451.19
2022-11-25T09:18:12.257Z,96445.22
2022-11-25T09:20:39.700Z,96439.22
2022-11-25T09:23:07.722Z,96441.13
2022-11-25T09:25:34.956Z,96437.03
2022-11-25T09:28:01.685Z,96438.13
2022-11-25T09:30:28.236Z,96432.34
2022-11-25T09:32:55.392Z,96432.69
2022-11-25T09:35:22.779Z,96433.63
2022-11-25T09:37:49.307Z,96434.19
2022-11-25T09:40:20.621Z,96430.41
2022-11-25T09:43:05.417Z,96427.06
2022-11-25T09:46:02.547Z,96423.34
2022-11-25T09:48:55.672Z,96419.97
2022-11-25T09:51:25.045Z,96419.72
2022-11-25T09:53:56.706Z,96402.47
2022-11-25T09:56:31.725Z,96407.97
2022-11-25T09:59:13.264Z,96397.19
2022-11-25T10:01:46.228Z,96407.84
2022-11-25T10:04:26.983Z,96405.66
2022-11-25T10:06:55.909Z,96400.97
2022-11-25T10:09:27.842Z,96395.22
2022-11-25T10:12:06.180Z,96389.94
2022-11-25T10:14:40.364Z,96392.25
2022-11-25T10:17:09.622Z,96385.56
2022-11-25T10:19:43.869Z,96377.78
2022-11-25T10:22:20.678Z,96366.44
2022-11-25T10:24:48.112Z,96368.34
2022-11-25T10:27:47.266Z,96365.94
2022-11-25T10:30:17.162Z,96357.00
2022-11-25T10:32:46.611Z,96353.63
2022-11-25T10:35:20.298Z,96354.94
2022-11-25T10:37:47.953Z,96353.00
2022-11-25T10:40:15.948Z,96359.06
2022-11-25T10:42:42.995Z,96350.59
2022-11-25T10:45:10.733Z,96346.03
2022-11-25T10:47:45.053Z,96348.81
2022-11-25T10:50:23.758Z,96344.94
2022-11-25T10:53:25.613Z,96339.34
2022-11-25T10:55:59.571Z,96335.56
2022-11-25T10:58:30.910Z,96330.00
2022-11-25T11:01:17.531Z,96323.53
2022-11-25T11:03:51.270Z,96327.44
2022-11-25T11:06:36.928Z,96316.94
2022-11-25T11:09:04.105Z,96314.72
2022-11-25T11:11:31.255Z,96308.63
2022-11-25T11:14:18.000Z,96303.88
2022-11-25T11:16:52.338Z,96307.75
2022-11-25T11:19:26.307Z,96309.53
2022-11-25T11:21:52.959Z,96297.97
2022-11-25T11:24:45.805Z,96307.72
2022-11-25T11:27:23.236Z,96299.31
2022-11-25T11:30:04.227Z,96300.31
2022-11-25T11:32:30.696Z,96301.00
2022-11-25T11:35:00.527Z,96305.63
2022-11-25T11:37:35.957Z,96308.16
2022-11-25T11:40:22.192Z,96312.91
2022-11-25T11:43:07.196Z,96312.78
2022-11-25T11:45:41.413Z,96310.84
2022-11-25T11:48:32.045Z,96311.81
2022-11-25T11:51:13.413Z,96310.56
2022-11-25T11:53:55.104Z,96302.47
2022-11-25T11:56:40.047Z,96313.19
2022-11-25T11:59:19.155Z,96307.63
2022-11-25T12:01:58.465Z,96302.34
2022-11-25T12:04:38.921Z,96299.84
2022-11-25T12:07:07.661Z,96308.75
2022-11-25T12:09:52.855Z,96306.94
2022-11-25T12:12:19.631Z,96301.78
2022-11-25T12:14:48.820Z,96309.16
2022-11-25T12:17:32.480Z,96307.19
2022-11-25T12:20:03.663Z,96302.47
2022-11-25T12:22:34.233Z,96304.00
2022-11-25T12:25:03.438Z,96301.06
2022-11-25T12:27:41.678Z,96297.44
2022-11-25T12:30:12.098Z,96296.75
2022-11-25T12:32:41.450Z,96293.81
2022-11-25T12:35:08.119Z,96294.66
2022-11-25T12:37:37.956Z,96292.44
2022-11-25T12:40:15.244Z,96298.22
2022-11-25T12:42:42.420Z,96302.09
2022-11-25T12:45:23.100Z,96302.75
2022-11-25T12:47:50.151Z,96303.53
2022-11-25T12:50:18.153Z,96302.28
2022-11-25T12:52:50.508Z,96300.59
2022-11-25T12:55:19.930Z,96296.69
2022-11-25T12:57:55.401Z,96297.19
2022-11-25T13:00:42.102Z,96298.56
2022-11-25T13:03:24.534Z,96297.03
2022-11-25T13:05:50.980Z,96303.09
2022-11-25T13:08:29.607Z,96306.28
2022-11-25T13:11:02.266Z,96308.72
2022-11-25T13:13:46.113Z,96299.53
2022-11-25T13:16:13.732Z,96304.22
2022-11-25T13:18:42.922Z,96304.22
2022-11-25T13:21:16.681Z,96299.44
2022-11-25T13:23:49.337Z,96303.56
2022-11-25T13:26:42.437Z,96306.22
2022-11-25T13:29:12.028Z,96315.16
2022-11-25T13:31:59.275Z,96308.34
2022-11-25T13:34:26.213Z,96314.84
2022-11-25T13:36:54.052Z,96317.88
2022-11-25T13:39:23.653Z,96318.09
2022-11-25T13:41:58.822Z,96325.44
2022-11-25T13:44:28.393Z,96319.31
2022-11-25T13:46:56.423Z,96317.06
2022-11-25T13:49:27.056Z,96329.78
2022-11-25T13:51:55.907Z,96333.97
2022-11-25T13:54:25.691Z,96334.94
2022-11-25T13:57:00.376Z,96333.38
2022-11-25T13:59:49.324Z,96334.31
2022-11-25T14:02:28.228Z,96330.66
2022-11-25T14:05:18.982Z,96335.34
2022-11-25T14:08:07.972Z,96332.47
2022-11-25T14:10:37.436Z,96328.91
2022-11-25T14:13:15.988Z,96333.56
2022-11-25T14:16:06.486Z,96330.59
2022-11-25T14:19:21.891Z,96333.47
2022-11-25T14:21:38.475Z,96334.91
2022-11-25T14:24:21.099Z,96335.75
2022-11-25T14:26:51.581Z,96334.06
2022-11-25T14:29:23.867Z,96328.16
2022-11-25T14:32:01.005Z,96328.09
2022-11-25T14:34:30.866Z,96334.81
2022-11-25T14:37:01.409Z,96345.13
2022-11-25T14:39:32.130Z,96337.69
2022-11-25T14:42:09.867Z,96338.19
2022-11-25T14:44:47.399Z,96343.94
2022-11-25T14:47:13.870Z,96335.91
2022-11-25T14:50:32.948Z,96336.03
2022-11-25T14:52:37.316Z,96347.28
2022-11-25T14:55:05.700Z,96348.50
2022-11-25T14:57:41.671Z,96348.25
2022-11-25T15:00:09.811Z,96349.34
2022-11-25T15:02:37.491Z,96354.63
2022-11-25T15:05:18.261Z,96351.50
2022-11-25T15:07:54.299Z,96355.91
2022-11-25T15:10:30.095Z,96357.84
2022-11-25T15:12:56.763Z,96365.97
2022-11-25T15:15:25.679Z,96370.63
2022-11-25T15:17:55.180Z,96368.34
2022-11-25T15:20:23.207Z,96371.09
2022-11-25T15:22:51.267Z,96365.00
2022-11-25T15:25:21.245Z,96368.00
2022-11-25T15:27:53.075Z,96372.53
2022-11-25T15:30:19.727Z,96372.91
2022-11-25T15:32:46.705Z,96378.63
2022-11-25T15:35:19.761Z,96382.25
2022-11-25T15:37:46.514Z,96375.53
2022-11-25T15:40:31.649Z,96377.66
2022-11-25T15:42:59.570Z,96371.47
2022-11-25T15:45:27.381Z,96371.78
2022-11-25T15:47:54.004Z,96374.19
2022-11-25T15:50:22.936Z,96375.47
2022-11-25T15:52:51.696Z,96376.56
2022-11-25T15:55:18.137Z,96379.50
2022-11-25T15:57:49.264Z,96385.00
2022-11-25T16:00:18.108Z,96388.00
2022-11-25T16:02:44.639Z,96389.06
2022-11-25T16:05:17.148Z,96389.06
2022-11-25T16:07:52.931Z,96406.63
2022-11-25T16:10:19.500Z,96396.00
2022-11-25T16:13:06.253Z,96399.69
2022-11-25T16:15:44.988Z,96402.78
2022-11-25T16:18:32.808Z,96402.44
2022-11-25T16:21:04.463Z,96400.22
2022-11-25T16:23:34.097Z,96406.53
2022-11-25T16:26:13.958Z,96417.03
2022-11-25T16:28:42.032Z,96411.88
2022-11-25T16:31:15.807Z,96406.53
2022-11-25T16:33:42.738Z,96417.88
2022-11-25T16:36:09.771Z,96416.19
2022-11-25T16:38:36.450Z,96413.69
2022-11-25T16:41:18.649Z,96422.31
2022-11-25T16:43:45.719Z,96423.25
2022-11-25T16:46:15.889Z,96426.72
2022-11-25T16:48:42.485Z,96424.19
2022-11-25T16:51:14.017Z,96420.63
2022-11-25T16:53:40.516Z,96429.47
2022-11-25T16:56:09.912Z,96420.75
2022-11-25T16:58:36.438Z,96418.94
2022-11-25T17:01:02.933Z,96421.34
2022-11-25T17:03:29.649Z,96430.59
2022-11-25T17:05:56.272Z,96413.81
2022-11-25T17:08:22.901Z,96421.13
2022-11-25T17:10:49.765Z,96429.22
2022-11-25T17:13:19.592Z,96431.75
2022-11-25T17:15:46.378Z,96426.50
2022-11-25T17:18:14.804Z,96431.25
2022-11-25T17:20:41.337Z,96435.53
2022-11-25T17:23:12.133Z,96437.03
2022-11-25T17:25:38.734Z,96433.53
2022-11-25T17:28:05.409Z,96441.66
2022-11-25T17:30:32.586Z,96447.19
2022-11-25T17:33:06.520Z,96445.28
2022-11-25T17:35:33.072Z,96449.81
2022-11-25T17:38:00.255Z,96452.56
2022-11-25T17:40:26.862Z,96449.81
2022-11-25T17:42:53.461Z,96457.47
2022-11-25T17:45:20.768Z,96454.84
2022-11-25T17:47:47.508Z,96457.94
2022-11-25T17:50:19.415Z,96455.19
2022-11-25T17:52:45.960Z,96464.78
2022-11-25T17:55:12.763Z,96466.03
2022-11-25T17:57:39.577Z,96467.50
2022-11-25T18:00:07.460Z,96468.47
2022-11-25T18:02:34.066Z,96471.56
2022-11-25T18:05:01.289Z,96477.31
2022-11-25T18:07:28.004Z,96479.00
2022-11-25T18:09:54.555Z,96487.09
2022-11-25T18:12:28.860Z,96479.94
2022-11-25T18:14:55.920Z,96481.63
2022-11-25T18:17:22.623Z,96487.81
2022-11-25T18:19:55.287Z,96502.84
2022-11-25T18:22:23.659Z,96503.59
2022-11-25T18:24:50.313Z,96503.72
2022-11-25T18:27:24.960Z,96508.25
2022-11-25T18:29:52.044Z,96508.59
2022-11-25T18:32:18.709Z,96519.22
2022-11-25T18:34:45.749Z,96515.53
2022-11-25T18:37:12.618Z,96513.22
2022-11-25T18:39:39.314Z,96516.91
2022-11-25T18:42:06.728Z,96524.78
2022-11-25T18:44:38.037Z,96523.09
2022-11-25T18:47:05.843Z,96524.78
2022-11-25T18:49:32.361Z,96527.00
2022-11-25T18:51:58.838Z,96523.75
2022-11-25T18:54:25.322Z,96523.75
2022-11-25T18:56:52.553Z,96526.06
2022-11-25T18:59:23.264Z,96530.06
2022-11-25T19:01:50.178Z,96532.91
2022-11-25T19:04:17.217Z,96533.44
2022-11-25T19:06:44.515Z,96537.34
2022-11-25T19:09:11.354Z,96525.44
2022-11-25T19:11:47.148Z,96533.69
2022-11-25T19:14:16.908Z,96543.38
2022-11-25T19:16:44.037Z,96539.78
2022-11-25T19:19:13.518Z,96540.00
2022-11-25T19:21:40.047Z,96554.09
2022-11-25T19:24:12.269Z,96550.50
2022-11-25T19:26:41.882Z,96550.75
2022-11-25T19:29:13.645Z,96553.25
2022-11-25T19:31:40.517Z,96560.31
2022-11-25T19:34:07.085Z,96556.59
2022-11-25T19:36:35.132Z,96559.34
2022-11-25T19:39:01.610Z,96563.44
2022-11-25T19:41:28.134Z,96566.91
2022-11-25T19:43:54.617Z,96577.63
2022-11-25T19:46:46.242Z,96574.06
2022-11-25T19:49:19.182Z,96575.97
2022-11-25T19:51:46.529Z,96575.75
2022-11-25T19:54:13.951Z,96581.84
2022-11-25T19:56:41.300Z,96587.94
2022-11-25T19:59:08.484Z,96593.09
2022-11-25T20:01:37.427Z,96587.94
2022-11-25T20:04:04.280Z,96595.38
2022-11-25T20:06:31.429Z,96594.78
2022-11-25T20:09:05.524Z,96595.84
2022-11-25T20:11:36.599Z,96599.63
2022-11-25T20:14:03.528Z,96599.41
2022-11-25T20:16:32.828Z,96605.00
2022-11-25T20:18:59.926Z,96603.31
2022-11-25T20:21:29.803Z,96612.13
2022-11-25T20:23:56.423Z,96605.63
2022-11-25T20:26:34.718Z,96609.44
2022-11-25T20:29:01.270Z,96608.78
2022-11-25T20:31:30.763Z,96619.53
2022-11-25T20:33:57.525Z,96607.97
2022-11-25T20:36:29.028Z,96608.16
2022-11-25T20:38:56.180Z,96616.59
2022-11-25T20:41:27.785Z,96611.41
2022-11-25T20:43:55.418Z,96613.97
2022-11-25T20:46:24.198Z,96616.47
2022-11-25T20:48:55.490Z,96624.13
2022-11-25T20:51:22.706Z,96622.25
2022-11-25T20:53:50.522Z,96626.25
2022-11-25T20:56:18.057Z,96629.91
2022-11-25T20:58:45.226Z,96632.00
2022-11-25T21:01:11.915Z,96641.38
2022-11-25T21:03:38.478Z,96646.63
2022-11-25T21:06:13.039Z,96644.22
2022-11-25T21:08:39.765Z,96645.56
2022-11-25T21:11:06.355Z,96648.41
2022-11-25T21:13:32.919Z,96657.41
2022-11-25T21:15:59.577Z,96657.22
2022-11-25T21:18:26.106Z,96648.59
2022-11-25T21:20:54.188Z,96654.78
2022-11-25T21:23:26.644Z,96655.22
2022-11-25T21:25:53.293Z,96646.91
2022-11-25T21:28:25.143Z,96645.66
2022-11-25T21:30:51.621Z,96645.44
2022-11-25T21:33:18.140Z,96654.38
2022-11-25T21:35:46.111Z,96658.47
2022-11-25T21:38:17.899Z,96658.47
2022-11-25T21:40:45.562Z,96668.00
2022-11-25T21:43:28.973Z,96669.91
2022-11-25T21:46:00.173Z,96665.03
2022-11-25T21:48:27.098Z,96662.31
2022-11-25T21:50:54.174Z,96665.13
2022-11-25T21:53:20.791Z,96675.75
2022-11-25T21:55:47.691Z,96680.44
2022-11-25T21:58:25.754Z,96679.81
2022-11-25T22:00:56.826Z,96679.72
2022-11-25T22:03:24.008Z,96682.53
2022-11-25T22:05:50.583Z,96693.03
2022-11-25T22:08:17.633Z,96695.66
2022-11-25T22:10:49.096Z,96692.41
2022-11-25T22:13:17.231Z,96701.94
2022-11-25T22:15:44.510Z,96690.59
2022-11-25T22:18:18.868Z,96697.00
2022-11-25T22:20:49.401Z,96703.19
2022-11-25T22:23:19.876Z,96713.78
2022-11-25T22:25:46.696Z,96704.88
2022-11-25T22:28:17.964Z,96702.91
2022-11-25T22:30:48.663Z,96717.06
2022-11-25T22:33:15.515Z,96718.34
2022-11-25T22:35:42.415Z,96722.41
2022-11-25T22:38:16.163Z,96721.19
2022-11-25T22:40:44.187Z,96724.22
2022-11-25T22:43:18.758Z,96722.53
2022-11-25T22:45:46.152Z,96727.69
2022-11-25T22:48:17.974Z,96727.03
2022-11-25T22:50:46.014Z,96726.19
2022-11-25T22:53:13.621Z,96730.59
2022-11-25T22:55:40.216Z,96726.56
2022-11-25T22:58:06.929Z,96734.16
2022-11-25T23:00:34.839Z,96730.78
2022-11-25T23:03:02.812Z,96731.91
2022-11-25T23:05:34.242Z,96739.63
2022-11-25T23:08:01.498Z,96734.63
2022-11-25T23:10:29.416Z,96731.19
2022-11-25T23:12:56.125Z,96735.09
2022-11-25T23:15:24.072Z,96736.34
2022-11-25T23:17:52.054Z,96740.19
2022-11-25T23:20:21.977Z,96735.09
2022-11-25T23:22:48.662Z,96748.31
2022-11-25T23:25:16.653Z,96736.59
2022-11-25T23:27:43.200Z,96742.91
2022-11-25T23:30:10.780Z,96744.88
2022-11-25T23:32:37.341Z,96733.72
2022-11-25T23:35:05.180Z,96735.59
2022-11-25T23:37:32.028Z,96737.19
2022-11-25T23:39:58.538Z,96744.97
2022-11-25T23:42:25.076Z,96737.19
2022-11-25T23:44:51.560Z,96743.56
2022-11-25T23:47:19.823Z,96744.69
2022-11-25T23:49:48.437Z,96738.78
2022-11-25T23:52:18.018Z,96738.78
2022-11-25T23:54:46.090Z,96739.53
2022-11-25T23:57:27.738Z,96743.38
2022-11-25T23:59:54.275Z,96748.81
